sensor_id;sensor_type;location;lat;lon;timestamp;temperature;humidity
46676;DHT22;32412;51.478;5.694;2023-04-06T00:01:36;2.90;99.90
46676;DHT22;32412;51.478;5.694;2023-04-06T00:04:02;2.70;99.90
46676;DHT22;32412;51.478;5.694;2023-04-06T00:06:27;2.60;99.90
46676;DHT22;32412;51.478;5.694;2023-04-06T00:08:54;2.60;99.90
46676;DHT22;32412;51.478;5.694;2023-04-06T00:11:21;2.60;99.90
46676;DHT22;32412;51.478;5.694;2023-04-06T00:13:46;2.60;99.90
46676;DHT22;32412;51.478;5.694;2023-04-06T00:16:12;2.60;99.90
46676;DHT22;32412;51.478;5.694;2023-04-06T00:18:39;2.70;99.90
46676;DHT22;32412;51.478;5.694;2023-04-06T00:21:05;2.70;99.90
46676;DHT22;32412;51.478;5.694;2023-04-06T00:23:31;2.70;99.90
46676;DHT22;32412;51.478;5.694;2023-04-06T00:25:56;2.60;99.90
46676;DHT22;32412;51.478;5.694;2023-04-06T00:28:22;2.60;99.90
46676;DHT22;32412;51.478;5.694;2023-04-06T00:30:52;2.70;99.90
46676;DHT22;32412;51.478;5.694;2023-04-06T00:33:18;2.70;99.90
46676;DHT22;32412;51.478;5.694;2023-04-06T00:35:45;2.70;99.90
46676;DHT22;32412;51.478;5.694;2023-04-06T00:38:12;2.70;99.90
46676;DHT22;32412;51.478;5.694;2023-04-06T00:40:37;2.70;99.90
46676;DHT22;32412;51.478;5.694;2023-04-06T00:43:05;2.60;99.90
46676;DHT22;32412;51.478;5.694;2023-04-06T00:45:31;2.50;99.90
46676;DHT22;32412;51.478;5.694;2023-04-06T00:47:57;2.50;99.90
46676;DHT22;32412;51.478;5.694;2023-04-06T00:50:23;2.60;99.90
46676;DHT22;32412;51.478;5.694;2023-04-06T00:52:49;2.60;99.90
46676;DHT22;32412;51.478;5.694;2023-04-06T00:55:17;2.50;99.90
46676;DHT22;32412;51.478;5.694;2023-04-06T00:57:43;2.40;99.90
46676;DHT22;32412;51.478;5.694;2023-04-06T01:00:09;2.40;99.90
46676;DHT22;32412;51.478;5.694;2023-04-06T01:02:35;2.30;99.90
46676;DHT22;32412;51.478;5.694;2023-04-06T01:05:01;2.30;99.90
46676;DHT22;32412;51.478;5.694;2023-04-06T01:07:27;2.30;99.90
46676;DHT22;32412;51.478;5.694;2023-04-06T01:09:54;2.40;99.90
46676;DHT22;32412;51.478;5.694;2023-04-06T01:12:24;2.40;99.90
46676;DHT22;32412;51.478;5.694;2023-04-06T01:14:50;2.30;99.90
46676;DHT22;32412;51.478;5.694;2023-04-06T01:17:16;2.30;99.90
46676;DHT22;32412;51.478;5.694;2023-04-06T01:19:42;2.20;99.90
46676;DHT22;32412;51.478;5.694;2023-04-06T01:22:07;2.20;99.90
46676;DHT22;32412;51.478;5.694;2023-04-06T01:24:33;2.10;99.90
46676;DHT22;32412;51.478;5.694;2023-04-06T01:26:59;2.10;99.90
46676;DHT22;32412;51.478;5.694;2023-04-06T01:29:26;2.20;99.90
46676;DHT22;32412;51.478;5.694;2023-04-06T01:31:51;2.20;99.90
46676;DHT22;32412;51.478;5.694;2023-04-06T01:34:17;2.20;99.90
46676;DHT22;32412;51.478;5.694;2023-04-06T01:36:43;2.20;99.90
46676;DHT22;32412;51.478;5.694;2023-04-06T01:39:09;2.20;99.90
46676;DHT22;32412;51.478;5.694;2023-04-06T01:41:35;2.10;99.90
46676;DHT22;32412;51.478;5.694;2023-04-06T01:44:01;2.10;99.90
46676;DHT22;32412;51.478;5.694;2023-04-06T01:46:27;2.10;99.90
46676;DHT22;32412;51.478;5.694;2023-04-06T01:48:53;2.00;99.90
46676;DHT22;32412;51.478;5.694;2023-04-06T01:51:19;2.00;99.90
46676;DHT22;32412;51.478;5.694;2023-04-06T01:53:44;2.00;99.90
46676;DHT22;32412;51.478;5.694;2023-04-06T01:56:10;2.00;99.90
46676;DHT22;32412;51.478;5.694;2023-04-06T01:58:36;2.00;99.90
46676;DHT22;32412;51.478;5.694;2023-04-06T02:01:02;2.10;99.90
46676;DHT22;32412;51.478;5.694;2023-04-06T02:03:28;2.20;99.90
46676;DHT22;32412;51.478;5.694;2023-04-06T02:05:53;2.20;99.90
46676;DHT22;32412;51.478;5.694;2023-04-06T02:08:19;2.30;99.90
46676;DHT22;32412;51.478;5.694;2023-04-06T02:10:45;2.30;99.90
46676;DHT22;32412;51.478;5.694;2023-04-06T02:13:11;2.30;99.90
46676;DHT22;32412;51.478;5.694;2023-04-06T02:15:37;2.30;99.90
46676;DHT22;32412;51.478;5.694;2023-04-06T02:18:02;2.30;99.90
46676;DHT22;32412;51.478;5.694;2023-04-06T02:20:28;2.20;99.90
46676;DHT22;32412;51.478;5.694;2023-04-06T02:22:58;2.20;99.90
46676;DHT22;32412;51.478;5.694;2023-04-06T02:25:24;2.30;99.90
46676;DHT22;32412;51.478;5.694;2023-04-06T02:27:50;2.40;99.90
46676;DHT22;32412;51.478;5.694;2023-04-06T02:30:16;2.50;99.90
46676;DHT22;32412;51.478;5.694;2023-04-06T02:32:41;2.60;99.90
46676;DHT22;32412;51.478;5.694;2023-04-06T02:35:07;2.70;99.90
46676;DHT22;32412;51.478;5.694;2023-04-06T02:37:33;2.80;99.90
46676;DHT22;32412;51.478;5.694;2023-04-06T02:39:59;2.90;99.90
46676;DHT22;32412;51.478;5.694;2023-04-06T02:42:24;3.00;99.90
46676;DHT22;32412;51.478;5.694;2023-04-06T02:44:50;3.10;99.90
46676;DHT22;32412;51.478;5.694;2023-04-06T02:47:16;3.20;99.90
46676;DHT22;32412;51.478;5.694;2023-04-06T02:49:41;3.20;99.90
46676;DHT22;32412;51.478;5.694;2023-04-06T02:52:07;3.30;99.90
46676;DHT22;32412;51.478;5.694;2023-04-06T02:54:33;3.30;99.90
46676;DHT22;32412;51.478;5.694;2023-04-06T02:56:58;3.40;99.90
46676;DHT22;32412;51.478;5.694;2023-04-06T02:59:24;3.40;99.90
46676;DHT22;32412;51.478;5.694;2023-04-06T03:01:51;3.50;99.90
46676;DHT22;32412;51.478;5.694;2023-04-06T03:04:16;3.50;99.90
46676;DHT22;32412;51.478;5.694;2023-04-06T03:06:42;3.50;99.90
46676;DHT22;32412;51.478;5.694;2023-04-06T03:09:08;3.60;99.90
46676;DHT22;32412;51.478;5.694;2023-04-06T03:11:33;3.60;99.90
46676;DHT22;32412;51.478;5.694;2023-04-06T03:13:59;3.60;99.90
46676;DHT22;32412;51.478;5.694;2023-04-06T03:16:25;3.70;99.90
46676;DHT22;32412;51.478;5.694;2023-04-06T03:18:50;3.70;99.90
46676;DHT22;32412;51.478;5.694;2023-04-06T03:21:16;3.70;99.90
46676;DHT22;32412;51.478;5.694;2023-04-06T03:23:42;3.70;99.90
46676;DHT22;32412;51.478;5.694;2023-04-06T03:26:08;3.80;99.90
46676;DHT22;32412;51.478;5.694;2023-04-06T03:28:34;3.80;99.90
46676;DHT22;32412;51.478;5.694;2023-04-06T03:30:59;3.80;99.90
46676;DHT22;32412;51.478;5.694;2023-04-06T03:33:25;3.80;99.90
46676;DHT22;32412;51.478;5.694;2023-04-06T03:35:54;3.80;99.90
46676;DHT22;32412;51.478;5.694;2023-04-06T03:38:20;3.80;99.90
46676;DHT22;32412;51.478;5.694;2023-04-06T03:40:46;3.80;99.90
46676;DHT22;32412;51.478;5.694;2023-04-06T03:43:11;3.90;99.90
46676;DHT22;32412;51.478;5.694;2023-04-06T03:45:37;3.90;99.90
46676;DHT22;32412;51.478;5.694;2023-04-06T03:48:03;3.90;99.90
46676;DHT22;32412;51.478;5.694;2023-04-06T03:50:29;3.90;99.90
46676;DHT22;32412;51.478;5.694;2023-04-06T03:52:55;3.90;99.90
46676;DHT22;32412;51.478;5.694;2023-04-06T03:55:20;4.00;99.90
46676;DHT22;32412;51.478;5.694;2023-04-06T03:57:46;3.90;99.90
46676;DHT22;32412;51.478;5.694;2023-04-06T04:00:12;3.90;99.90
46676;DHT22;32412;51.478;5.694;2023-04-06T04:02:38;4.00;99.90
46676;DHT22;32412;51.478;5.694;2023-04-06T04:05:07;4.00;99.90
46676;DHT22;32412;51.478;5.694;2023-04-06T04:07:33;4.00;99.90
46676;DHT22;32412;51.478;5.694;2023-04-06T04:09:59;4.00;99.90
46676;DHT22;32412;51.478;5.694;2023-04-06T04:12:25;4.10;99.90
46676;DHT22;32412;51.478;5.694;2023-04-06T04:14:50;4.00;99.90
46676;DHT22;32412;51.478;5.694;2023-04-06T04:17:16;4.00;99.90
46676;DHT22;32412;51.478;5.694;2023-04-06T04:19:42;4.00;99.90
46676;DHT22;32412;51.478;5.694;2023-04-06T04:22:07;4.00;99.90
46676;DHT22;32412;51.478;5.694;2023-04-06T04:24:33;3.90;99.90
46676;DHT22;32412;51.478;5.694;2023-04-06T04:26:59;3.90;99.90
46676;DHT22;32412;51.478;5.694;2023-04-06T04:29:28;3.90;99.90
46676;DHT22;32412;51.478;5.694;2023-04-06T04:31:54;3.80;99.90
46676;DHT22;32412;51.478;5.694;2023-04-06T04:34:20;3.80;99.90
46676;DHT22;32412;51.478;5.694;2023-04-06T04:36:49;3.80;99.90
46676;DHT22;32412;51.478;5.694;2023-04-06T04:39:14;3.80;99.90
46676;DHT22;32412;51.478;5.694;2023-04-06T04:41:40;3.80;99.90
46676;DHT22;32412;51.478;5.694;2023-04-06T04:44:06;3.90;99.90
46676;DHT22;32412;51.478;5.694;2023-04-06T04:46:32;3.90;99.90
46676;DHT22;32412;51.478;5.694;2023-04-06T04:48:57;3.90;99.90
46676;DHT22;32412;51.478;5.694;2023-04-06T04:51:23;3.90;99.90
46676;DHT22;32412;51.478;5.694;2023-04-06T04:53:50;3.90;99.90
46676;DHT22;32412;51.478;5.694;2023-04-06T04:56:15;3.90;99.90
46676;DHT22;32412;51.478;5.694;2023-04-06T04:58:41;3.90;99.90
46676;DHT22;32412;51.478;5.694;2023-04-06T05:01:07;3.90;99.90
46676;DHT22;32412;51.478;5.694;2023-04-06T05:03:33;3.90;99.90
46676;DHT22;32412;51.478;5.694;2023-04-06T05:05:59;3.90;99.90
46676;DHT22;32412;51.478;5.694;2023-04-06T05:08:24;3.90;99.90
46676;DHT22;32412;51.478;5.694;2023-04-06T05:10:50;3.90;99.90
46676;DHT22;32412;51.478;5.694;2023-04-06T05:13:16;3.80;99.90
46676;DHT22;32412;51.478;5.694;2023-04-06T05:15:42;3.80;99.90
46676;DHT22;32412;51.478;5.694;2023-04-06T05:18:08;3.80;99.90
46676;DHT22;32412;51.478;5.694;2023-04-06T05:20:35;3.80;99.90
46676;DHT22;32412;51.478;5.694;2023-04-06T05:23:01;3.80;99.90
46676;DHT22;32412;51.478;5.694;2023-04-06T05:25:27;3.80;99.90
46676;DHT22;32412;51.478;5.694;2023-04-06T05:27:53;3.90;99.90
46676;DHT22;32412;51.478;5.694;2023-04-06T05:30:19;3.90;99.90
46676;DHT22;32412;51.478;5.694;2023-04-06T05:32:45;4.00;99.90
46676;DHT22;32412;51.478;5.694;2023-04-06T05:35:11;4.00;99.90
46676;DHT22;32412;51.478;5.694;2023-04-06T05:37:38;4.10;99.90
46676;DHT22;32412;51.478;5.694;2023-04-06T05:40:04;4.10;99.90
46676;DHT22;32412;51.478;5.694;2023-04-06T05:42:40;4.20;99.90
46676;DHT22;32412;51.478;5.694;2023-04-06T05:45:07;4.20;99.90
46676;DHT22;32412;51.478;5.694;2023-04-06T05:47:33;4.20;99.90
46676;DHT22;32412;51.478;5.694;2023-04-06T05:49:59;4.30;99.90
46676;DHT22;32412;51.478;5.694;2023-04-06T05:52:25;4.30;99.90
46676;DHT22;32412;51.478;5.694;2023-04-06T05:54:51;4.40;99.90
46676;DHT22;32412;51.478;5.694;2023-04-06T05:57:17;4.40;99.90
46676;DHT22;32412;51.478;5.694;2023-04-06T05:59:43;4.50;99.90
46676;DHT22;32412;51.478;5.694;2023-04-06T06:02:08;4.50;99.90
46676;DHT22;32412;51.478;5.694;2023-04-06T06:04:34;4.60;99.90
46676;DHT22;32412;51.478;5.694;2023-04-06T06:07:00;4.60;99.90
46676;DHT22;32412;51.478;5.694;2023-04-06T06:09:26;4.70;99.90
46676;DHT22;32412;51.478;5.694;2023-04-06T06:11:51;4.80;99.90
46676;DHT22;32412;51.478;5.694;2023-04-06T06:14:17;4.90;99.90
46676;DHT22;32412;51.478;5.694;2023-04-06T06:16:43;4.90;99.90
46676;DHT22;32412;51.478;5.694;2023-04-06T06:19:09;5.00;99.90
46676;DHT22;32412;51.478;5.694;2023-04-06T06:21:34;5.10;99.90
46676;DHT22;32412;51.478;5.694;2023-04-06T06:24:00;5.10;99.90
46676;DHT22;32412;51.478;5.694;2023-04-06T06:26:26;5.10;99.90
46676;DHT22;32412;51.478;5.694;2023-04-06T06:28:51;5.20;99.90
46676;DHT22;32412;51.478;5.694;2023-04-06T06:31:17;5.30;99.90
46676;DHT22;32412;51.478;5.694;2023-04-06T06:33:46;5.40;99.90
46676;DHT22;32412;51.478;5.694;2023-04-06T06:36:13;5.50;99.90
46676;DHT22;32412;51.478;5.694;2023-04-06T06:38:40;5.60;99.90
46676;DHT22;32412;51.478;5.694;2023-04-06T06:41:05;5.70;99.90
46676;DHT22;32412;51.478;5.694;2023-04-06T06:43:31;5.80;99.90
46676;DHT22;32412;51.478;5.694;2023-04-06T06:46:00;5.90;99.90
46676;DHT22;32412;51.478;5.694;2023-04-06T06:48:25;6.00;99.90
46676;DHT22;32412;51.478;5.694;2023-04-06T06:50:51;6.10;99.90
46676;DHT22;32412;51.478;5.694;2023-04-06T06:53:17;6.20;99.90
46676;DHT22;32412;51.478;5.694;2023-04-06T06:55:43;6.20;99.90
46676;DHT22;32412;51.478;5.694;2023-04-06T06:58:15;6.30;99.90
46676;DHT22;32412;51.478;5.694;2023-04-06T07:00:41;6.40;99.90
46676;DHT22;32412;51.478;5.694;2023-04-06T07:03:09;6.40;99.90
46676;DHT22;32412;51.478;5.694;2023-04-06T07:05:35;6.40;99.90
46676;DHT22;32412;51.478;5.694;2023-04-06T07:08:01;6.40;99.90
46676;DHT22;32412;51.478;5.694;2023-04-06T07:10:26;6.50;99.90
46676;DHT22;32412;51.478;5.694;2023-04-06T07:12:52;6.60;99.90
46676;DHT22;32412;51.478;5.694;2023-04-06T07:15:18;6.60;99.90
46676;DHT22;32412;51.478;5.694;2023-04-06T07:17:43;6.60;99.90
46676;DHT22;32412;51.478;5.694;2023-04-06T07:20:13;6.60;99.90
46676;DHT22;32412;51.478;5.694;2023-04-06T07:22:39;6.70;99.90
46676;DHT22;32412;51.478;5.694;2023-04-06T07:25:05;6.80;99.90
46676;DHT22;32412;51.478;5.694;2023-04-06T07:27:31;6.80;99.90
46676;DHT22;32412;51.478;5.694;2023-04-06T07:29:57;6.90;99.90
46676;DHT22;32412;51.478;5.694;2023-04-06T07:32:23;7.00;99.90
46676;DHT22;32412;51.478;5.694;2023-04-06T07:34:49;7.00;99.90
46676;DHT22;32412;51.478;5.694;2023-04-06T07:37:14;7.00;99.90
46676;DHT22;32412;51.478;5.694;2023-04-06T07:39:40;7.00;99.90
46676;DHT22;32412;51.478;5.694;2023-04-06T07:42:06;7.20;99.90
46676;DHT22;32412;51.478;5.694;2023-04-06T07:44:32;7.20;99.90
46676;DHT22;32412;51.478;5.694;2023-04-06T07:46:57;7.30;99.90
46676;DHT22;32412;51.478;5.694;2023-04-06T07:49:23;7.40;99.90
46676;DHT22;32412;51.478;5.694;2023-04-06T07:51:49;7.50;99.90
46676;DHT22;32412;51.478;5.694;2023-04-06T07:54:15;7.60;99.90
46676;DHT22;32412;51.478;5.694;2023-04-06T07:56:40;7.60;99.90
46676;DHT22;32412;51.478;5.694;2023-04-06T07:59:09;7.60;99.90
46676;DHT22;32412;51.478;5.694;2023-04-06T08:01:36;7.70;99.90
46676;DHT22;32412;51.478;5.694;2023-04-06T08:04:03;7.80;99.90
46676;DHT22;32412;51.478;5.694;2023-04-06T08:06:29;7.90;99.90
46676;DHT22;32412;51.478;5.694;2023-04-06T08:08:55;8.00;99.90
46676;DHT22;32412;51.478;5.694;2023-04-06T08:11:21;8.10;99.90
46676;DHT22;32412;51.478;5.694;2023-04-06T08:13:47;8.20;99.90
46676;DHT22;32412;51.478;5.694;2023-04-06T08:16:13;8.20;99.90
46676;DHT22;32412;51.478;5.694;2023-04-06T08:18:41;8.20;99.90
46676;DHT22;32412;51.478;5.694;2023-04-06T08:21:08;8.20;99.90
46676;DHT22;32412;51.478;5.694;2023-04-06T08:23:33;8.30;99.90
46676;DHT22;32412;51.478;5.694;2023-04-06T08:25:59;8.40;99.90
46676;DHT22;32412;51.478;5.694;2023-04-06T08:28:25;8.50;99.90
46676;DHT22;32412;51.478;5.694;2023-04-06T08:30:50;8.60;99.90
46676;DHT22;32412;51.478;5.694;2023-04-06T08:33:16;8.70;99.90
46676;DHT22;32412;51.478;5.694;2023-04-06T08:35:42;8.70;99.90
46676;DHT22;32412;51.478;5.694;2023-04-06T08:38:10;8.80;99.90
46676;DHT22;32412;51.478;5.694;2023-04-06T08:40:40;8.70;99.90
46676;DHT22;32412;51.478;5.694;2023-04-06T08:43:10;8.70;99.90
46676;DHT22;32412;51.478;5.694;2023-04-06T08:45:40;8.80;99.90
46676;DHT22;32412;51.478;5.694;2023-04-06T08:48:06;9.00;99.90
46676;DHT22;32412;51.478;5.694;2023-04-06T08:50:33;9.10;99.90
46676;DHT22;32412;51.478;5.694;2023-04-06T08:52:59;9.10;99.90
46676;DHT22;32412;51.478;5.694;2023-04-06T08:55:25;9.20;99.90
46676;DHT22;32412;51.478;5.694;2023-04-06T08:57:50;9.30;99.90
46676;DHT22;32412;51.478;5.694;2023-04-06T09:00:20;9.30;99.90
46676;DHT22;32412;51.478;5.694;2023-04-06T09:02:46;9.50;99.90
46676;DHT22;32412;51.478;5.694;2023-04-06T09:05:15;9.50;99.90
46676;DHT22;32412;51.478;5.694;2023-04-06T09:07:41;9.60;99.90
46676;DHT22;32412;51.478;5.694;2023-04-06T09:10:10;9.60;99.90
46676;DHT22;32412;51.478;5.694;2023-04-06T09:12:36;9.70;99.90
46676;DHT22;32412;51.478;5.694;2023-04-06T09:15:03;9.80;99.90
46676;DHT22;32412;51.478;5.694;2023-04-06T09:17:31;9.80;99.90
46676;DHT22;32412;51.478;5.694;2023-04-06T09:19:58;9.90;99.90
46676;DHT22;32412;51.478;5.694;2023-04-06T09:22:24;9.90;99.90
46676;DHT22;32412;51.478;5.694;2023-04-06T09:24:53;9.90;99.90
46676;DHT22;32412;51.478;5.694;2023-04-06T09:27:33;10.10;99.90
46676;DHT22;32412;51.478;5.694;2023-04-06T09:30:08;10.20;99.90
46676;DHT22;32412;51.478;5.694;2023-04-06T09:32:55;10.20;99.90
46676;DHT22;32412;51.478;5.694;2023-04-06T09:35:21;10.40;99.90
46676;DHT22;32412;51.478;5.694;2023-04-06T09:37:49;10.50;99.90
46676;DHT22;32412;51.478;5.694;2023-04-06T09:40:15;10.70;99.90
46676;DHT22;32412;51.478;5.694;2023-04-06T09:42:45;11.00;99.90
46676;DHT22;32412;51.478;5.694;2023-04-06T09:45:12;11.00;99.90
46676;DHT22;32412;51.478;5.694;2023-04-06T09:47:40;11.10;99.90
46676;DHT22;32412;51.478;5.694;2023-04-06T09:50:07;11.20;99.90
46676;DHT22;32412;51.478;5.694;2023-04-06T09:52:41;11.30;99.90
46676;DHT22;32412;51.478;5.694;2023-04-06T09:55:08;11.50;99.90
46676;DHT22;32412;51.478;5.694;2023-04-06T10:00:11;11.50;99.90
46676;DHT22;32412;51.478;5.694;2023-04-06T10:02:59;11.50;99.90
46676;DHT22;32412;51.478;5.694;2023-04-06T10:08:09;11.70;99.90
46676;DHT22;32412;51.478;5.694;2023-04-06T10:10:35;11.70;99.90
46676;DHT22;32412;51.478;5.694;2023-04-06T10:13:02;11.70;99.90
46676;DHT22;32412;51.478;5.694;2023-04-06T10:15:29;11.70;99.90
46676;DHT22;32412;51.478;5.694;2023-04-06T10:17:57;11.60;99.90
46676;DHT22;32412;51.478;5.694;2023-04-06T10:25:36;11.10;99.90
46676;DHT22;32412;51.478;5.694;2023-04-06T10:28:08;10.90;99.90
46676;DHT22;32412;51.478;5.694;2023-04-06T10:30:35;10.80;99.90
46676;DHT22;32412;51.478;5.694;2023-04-06T10:33:12;10.80;99.90
46676;DHT22;32412;51.478;5.694;2023-04-06T10:35:37;10.80;99.90
46676;DHT22;32412;51.478;5.694;2023-04-06T10:38:04;10.80;99.90
46676;DHT22;32412;51.478;5.694;2023-04-06T10:40:31;10.70;99.90
46676;DHT22;32412;51.478;5.694;2023-04-06T10:43:18;10.70;99.90
46676;DHT22;32412;51.478;5.694;2023-04-06T10:45:44;10.60;99.90
46676;DHT22;32412;51.478;5.694;2023-04-06T10:48:14;10.50;99.90
46676;DHT22;32412;51.478;5.694;2023-04-06T10:50:44;10.50;99.90
46676;DHT22;32412;51.478;5.694;2023-04-06T10:53:10;10.40;99.90
46676;DHT22;32412;51.478;5.694;2023-04-06T10:55:39;10.20;99.90
46676;DHT22;32412;51.478;5.694;2023-04-06T10:58:07;10.20;99.90
46676;DHT22;32412;51.478;5.694;2023-04-06T11:00:33;10.10;99.90
46676;DHT22;32412;51.478;5.694;2023-04-06T11:02:59;10.00;99.90
46676;DHT22;32412;51.478;5.694;2023-04-06T11:05:29;9.90;99.90
46676;DHT22;32412;51.478;5.694;2023-04-06T11:07:56;9.90;99.90
46676;DHT22;32412;51.478;5.694;2023-04-06T11:10:22;9.80;99.90
46676;DHT22;32412;51.478;5.694;2023-04-06T11:12:57;9.90;99.90
46676;DHT22;32412;51.478;5.694;2023-04-06T11:15:23;9.80;99.90
46676;DHT22;32412;51.478;5.694;2023-04-06T11:17:49;9.70;99.90
46676;DHT22;32412;51.478;5.694;2023-04-06T11:20:15;9.70;99.90
46676;DHT22;32412;51.478;5.694;2023-04-06T11:22:53;9.60;99.90
46676;DHT22;32412;51.478;5.694;2023-04-06T11:25:19;9.40;99.90
46676;DHT22;32412;51.478;5.694;2023-04-06T11:27:46;9.20;99.90
46676;DHT22;32412;51.478;5.694;2023-04-06T11:30:13;9.10;99.90
46676;DHT22;32412;51.478;5.694;2023-04-06T11:32:41;9.00;99.90
46676;DHT22;32412;51.478;5.694;2023-04-06T11:35:25;8.90;99.90
46676;DHT22;32412;51.478;5.694;2023-04-06T11:37:51;8.80;99.90
46676;DHT22;32412;51.478;5.694;2023-04-06T11:40:23;8.80;99.90
46676;DHT22;32412;51.478;5.694;2023-04-06T11:42:54;8.70;99.90
46676;DHT22;32412;51.478;5.694;2023-04-06T11:45:20;8.50;99.90
46676;DHT22;32412;51.478;5.694;2023-04-06T11:47:55;8.60;99.90
46676;DHT22;32412;51.478;5.694;2023-04-06T11:50:22;8.50;99.90
46676;DHT22;32412;51.478;5.694;2023-04-06T11:52:58;8.40;99.90
46676;DHT22;32412;51.478;5.694;2023-04-06T11:55:25;8.40;99.90
46676;DHT22;32412;51.478;5.694;2023-04-06T11:57:51;8.40;99.90
46676;DHT22;32412;51.478;5.694;2023-04-06T12:00:17;8.40;99.90
46676;DHT22;32412;51.478;5.694;2023-04-06T12:02:47;8.50;99.90
46676;DHT22;32412;51.478;5.694;2023-04-06T12:05:13;8.50;99.90
46676;DHT22;32412;51.478;5.694;2023-04-06T12:07:39;8.60;99.90
46676;DHT22;32412;51.478;5.694;2023-04-06T12:10:06;8.60;99.90
46676;DHT22;32412;51.478;5.694;2023-04-06T12:12:32;8.80;99.90
46676;DHT22;32412;51.478;5.694;2023-04-06T12:14:58;8.90;99.90
46676;DHT22;32412;51.478;5.694;2023-04-06T12:17:24;9.00;99.90
46676;DHT22;32412;51.478;5.694;2023-04-06T12:19:50;9.00;99.90
46676;DHT22;32412;51.478;5.694;2023-04-06T12:22:17;9.10;99.90
46676;DHT22;32412;51.478;5.694;2023-04-06T12:24:42;8.90;99.90
46676;DHT22;32412;51.478;5.694;2023-04-06T12:27:08;9.00;99.90
46676;DHT22;32412;51.478;5.694;2023-04-06T12:29:36;9.00;99.90
46676;DHT22;32412;51.478;5.694;2023-04-06T12:32:02;9.10;99.90
46676;DHT22;32412;51.478;5.694;2023-04-06T12:34:28;9.00;99.90
46676;DHT22;32412;51.478;5.694;2023-04-06T12:36:54;9.00;99.90
46676;DHT22;32412;51.478;5.694;2023-04-06T12:39:19;9.00;99.90
46676;DHT22;32412;51.478;5.694;2023-04-06T12:41:47;9.00;99.90
46676;DHT22;32412;51.478;5.694;2023-04-06T12:44:12;9.00;99.90
46676;DHT22;32412;51.478;5.694;2023-04-06T12:46:38;8.90;99.90
46676;DHT22;32412;51.478;5.694;2023-04-06T12:49:04;8.80;99.90
46676;DHT22;32412;51.478;5.694;2023-04-06T12:51:30;8.80;99.90
46676;DHT22;32412;51.478;5.694;2023-04-06T12:53:56;8.90;99.90
46676;DHT22;32412;51.478;5.694;2023-04-06T12:56:22;8.80;99.90
46676;DHT22;32412;51.478;5.694;2023-04-06T12:58:49;8.80;99.90
46676;DHT22;32412;51.478;5.694;2023-04-06T13:01:16;8.80;99.90
46676;DHT22;32412;51.478;5.694;2023-04-06T13:03:42;8.80;99.90
46676;DHT22;32412;51.478;5.694;2023-04-06T13:06:08;8.80;99.90
46676;DHT22;32412;51.478;5.694;2023-04-06T13:08:34;8.80;99.90
46676;DHT22;32412;51.478;5.694;2023-04-06T13:11:01;8.80;99.90
46676;DHT22;32412;51.478;5.694;2023-04-06T13:13:28;8.80;99.90
46676;DHT22;32412;51.478;5.694;2023-04-06T13:16:02;8.90;99.90
46676;DHT22;32412;51.478;5.694;2023-04-06T13:18:29;9.00;99.90
46676;DHT22;32412;51.478;5.694;2023-04-06T13:20:56;9.10;99.90
46676;DHT22;32412;51.478;5.694;2023-04-06T13:23:25;9.10;99.90
46676;DHT22;32412;51.478;5.694;2023-04-06T13:26:05;9.10;99.90
46676;DHT22;32412;51.478;5.694;2023-04-06T13:28:32;9.10;99.90
46676;DHT22;32412;51.478;5.694;2023-04-06T13:30:59;9.00;99.90
46676;DHT22;32412;51.478;5.694;2023-04-06T13:33:29;9.00;99.90
46676;DHT22;32412;51.478;5.694;2023-04-06T13:35:55;9.00;99.90
46676;DHT22;32412;51.478;5.694;2023-04-06T13:38:21;8.90;99.90
46676;DHT22;32412;51.478;5.694;2023-04-06T13:40:49;8.90;99.90
46676;DHT22;32412;51.478;5.694;2023-04-06T13:43:15;8.90;99.90
46676;DHT22;32412;51.478;5.694;2023-04-06T13:45:52;8.80;99.90
46676;DHT22;32412;51.478;5.694;2023-04-06T13:48:18;8.90;99.90
46676;DHT22;32412;51.478;5.694;2023-04-06T13:50:44;8.90;99.90
46676;DHT22;32412;51.478;5.694;2023-04-06T13:53:10;8.90;99.90
46676;DHT22;32412;51.478;5.694;2023-04-06T13:55:36;8.90;99.90
46676;DHT22;32412;51.478;5.694;2023-04-06T13:58:01;9.00;99.90
46676;DHT22;32412;51.478;5.694;2023-04-06T14:00:27;8.90;99.90
46676;DHT22;32412;51.478;5.694;2023-04-06T14:02:55;8.90;99.90
46676;DHT22;32412;51.478;5.694;2023-04-06T14:05:21;8.90;99.90
46676;DHT22;32412;51.478;5.694;2023-04-06T14:07:51;8.80;99.90
46676;DHT22;32412;51.478;5.694;2023-04-06T14:10:16;8.80;99.90
46676;DHT22;32412;51.478;5.694;2023-04-06T14:12:43;8.70;99.90
46676;DHT22;32412;51.478;5.694;2023-04-06T14:15:12;8.60;99.90
46676;DHT22;32412;51.478;5.694;2023-04-06T14:17:38;8.60;99.90
46676;DHT22;32412;51.478;5.694;2023-04-06T14:20:07;8.50;99.90
46676;DHT22;32412;51.478;5.694;2023-04-06T14:22:33;8.50;99.90
46676;DHT22;32412;51.478;5.694;2023-04-06T14:24:59;8.40;99.90
46676;DHT22;32412;51.478;5.694;2023-04-06T14:27:25;8.40;99.90
46676;DHT22;32412;51.478;5.694;2023-04-06T14:29:50;8.40;99.90
46676;DHT22;32412;51.478;5.694;2023-04-06T14:32:16;8.40;99.90
46676;DHT22;32412;51.478;5.694;2023-04-06T14:34:42;8.40;99.90
46676;DHT22;32412;51.478;5.694;2023-04-06T14:37:08;8.40;99.90
46676;DHT22;32412;51.478;5.694;2023-04-06T14:39:33;8.30;99.90
46676;DHT22;32412;51.478;5.694;2023-04-06T14:41:59;8.40;99.90
46676;DHT22;32412;51.478;5.694;2023-04-06T14:44:25;8.40;99.90
46676;DHT22;32412;51.478;5.694;2023-04-06T14:46:51;8.30;99.90
46676;DHT22;32412;51.478;5.694;2023-04-06T14:49:17;8.30;99.90
46676;DHT22;32412;51.478;5.694;2023-04-06T14:51:42;8.30;99.90
46676;DHT22;32412;51.478;5.694;2023-04-06T14:54:08;8.30;99.90
46676;DHT22;32412;51.478;5.694;2023-04-06T14:56:34;8.40;99.90
46676;DHT22;32412;51.478;5.694;2023-04-06T14:59:00;8.30;99.90
46676;DHT22;32412;51.478;5.694;2023-04-06T15:01:29;8.30;99.90
46676;DHT22;32412;51.478;5.694;2023-04-06T15:03:55;8.30;99.90
46676;DHT22;32412;51.478;5.694;2023-04-06T15:06:20;8.30;99.90
46676;DHT22;32412;51.478;5.694;2023-04-06T15:08:47;8.40;99.90
46676;DHT22;32412;51.478;5.694;2023-04-06T15:11:13;8.40;99.90
46676;DHT22;32412;51.478;5.694;2023-04-06T15:13:39;8.30;99.90
46676;DHT22;32412;51.478;5.694;2023-04-06T15:16:06;8.30;99.90
46676;DHT22;32412;51.478;5.694;2023-04-06T15:18:33;8.40;99.90
46676;DHT22;32412;51.478;5.694;2023-04-06T15:20:59;8.30;99.90
46676;DHT22;32412;51.478;5.694;2023-04-06T15:23:25;8.40;99.90
46676;DHT22;32412;51.478;5.694;2023-04-06T15:25:55;8.30;99.90
46676;DHT22;32412;51.478;5.694;2023-04-06T15:28:21;8.30;99.90
46676;DHT22;32412;51.478;5.694;2023-04-06T15:30:46;8.30;99.90
46676;DHT22;32412;51.478;5.694;2023-04-06T15:33:12;8.30;99.90
46676;DHT22;32412;51.478;5.694;2023-04-06T15:35:37;8.20;99.90
46676;DHT22;32412;51.478;5.694;2023-04-06T15:38:08;8.20;99.90
46676;DHT22;32412;51.478;5.694;2023-04-06T15:40:42;8.20;99.90
46676;DHT22;32412;51.478;5.694;2023-04-06T15:43:08;8.10;99.90
46676;DHT22;32412;51.478;5.694;2023-04-06T15:45:34;8.10;99.90
46676;DHT22;32412;51.478;5.694;2023-04-06T15:47:59;8.10;99.90
46676;DHT22;32412;51.478;5.694;2023-04-06T15:50:25;8.10;99.90
46676;DHT22;32412;51.478;5.694;2023-04-06T15:52:52;8.10;99.90